Forside
METAR-TAF:

METAR-TAF

Lufthavne :

Tahiti, Fransk Polynesien

Breddekreds: 17-33S, længdekreds: 149-37W, højde: 2 m

Aktuelle vejr

Denne rapport blev lavet for 6 minutter siden, kl. 16:30 UTC
Vind 3 kt fra østsydøst, varierende mellem øst og sydsydøst
Temperatur 26°C
Fugtighed 84%
Tryk 1012 hPa
Sigt 10 km eller mere
Nogle få skyer i en højde af 2300 ft, Optårnet Cumulus.
Nogle få skyer i en højde af 2300 ft
Spredte skyer i en højde af 30000 ft

METAR: NTAA 231630Z 11003KT 080V160 9999 FEW023TCU FEW023 SCT300 26/23 Q1012 NOSIG

Tid: 06:36 (16:36 UTC)

Vejrudsigter

Denne rapport blev lavet for 5 timer og 36 minutter siden, kl. 11:00 UTC
Foreløbig gælder fra 23 på 12 UTC til 24 på 18 UTC
Vind 5 kt fra varierende retninger
Sigt 10 km eller mere
Nogle få skyer i en højde af 2300 ft
ændring
fra 23 på 18 UTC til 23 på 20 UTC
Vind 12 kt fra nordøst
ændring
fra 24 på 03 UTC til 24 på 05 UTC
Vind 5 kt fra varierende retninger

TAF: NTAA 231100Z 2312/2418 VRB05KT 9999 FEW023 BECMG 2318/2320 04012KT BECMG 2403/2405 VRB05KT

Vejrobservationer og prognoser fra mere end 4000 lufthavne (METAR og TAF).

De gule og røde prikker repræsenterer de meteorologiske stationer.

Flyt musen over at se navnet på stationen.

Så klik over at se vejr observationer og prognoser.

At skifte det kort: Klik på de grønne knapper med et sort kors for at zoome ind; på den grønne knap med en bindestreg for at zoome ud; eller på de grønne pile for tilstødende kort.


METAR-TAF: